sensor_id;sensor_type;location;lat;lon;timestamp;P1;durP1;ratioP1;P2;durP2;ratioP2
22131;SDS011;11232;51.748;19.390;2024-02-04T00:01:32;6.17;;;2.87;;
22131;SDS011;11232;51.748;19.390;2024-02-04T00:03:58;7.17;;;2.73;;
22131;SDS011;11232;51.748;19.390;2024-02-04T00:06:24;7.10;;;3.27;;
22131;SDS011;11232;51.748;19.390;2024-02-04T00:08:51;5.47;;;2.83;;
22131;SDS011;11232;51.748;19.390;2024-02-04T00:11:17;5.33;;;2.90;;
22131;SDS011;11232;51.748;19.390;2024-02-04T00:13:43;6.07;;;3.20;;
22131;SDS011;11232;51.748;19.390;2024-02-04T00:16:09;7.50;;;3.43;;
22131;SDS011;11232;51.748;19.390;2024-02-04T00:18:35;7.90;;;3.57;;
22131;SDS011;11232;51.748;19.390;2024-02-04T00:21:01;5.93;;;3.43;;
22131;SDS011;11232;51.748;19.390;2024-02-04T00:23:27;8.97;;;4.20;;
22131;SDS011;11232;51.748;19.390;2024-02-04T00:25:53;9.20;;;4.03;;
22131;SDS011;11232;51.748;19.390;2024-02-04T00:28:19;7.97;;;4.07;;
22131;SDS011;11232;51.748;19.390;2024-02-04T00:30:46;7.40;;;4.07;;
22131;SDS011;11232;51.748;19.390;2024-02-04T00:33:14;12.03;;;4.20;;
22131;SDS011;11232;51.748;19.390;2024-02-04T00:35:40;7.20;;;3.57;;
22131;SDS011;11232;51.748;19.390;2024-02-04T00:38:06;5.37;;;3.57;;
22131;SDS011;11232;51.748;19.390;2024-02-04T00:40:33;8.87;;;3.33;;
22131;SDS011;11232;51.748;19.390;2024-02-04T00:42:59;8.03;;;4.30;;
22131;SDS011;11232;51.748;19.390;2024-02-04T00:45:25;7.13;;;3.97;;
22131;SDS011;11232;51.748;19.390;2024-02-04T00:47:51;8.40;;;3.70;;
22131;SDS011;11232;51.748;19.390;2024-02-04T00:50:17;12.03;;;4.20;;
22131;SDS011;11232;51.748;19.390;2024-02-04T00:52:43;10.37;;;3.80;;
22131;SDS011;11232;51.748;19.390;2024-02-04T00:55:09;5.03;;;3.00;;
22131;SDS011;11232;51.748;19.390;2024-02-04T00:57:35;7.90;;;3.93;;
22131;SDS011;11232;51.748;19.390;2024-02-04T01:00:02;6.23;;;3.27;;
22131;SDS011;11232;51.748;19.390;2024-02-04T01:02:29;5.43;;;3.50;;
22131;SDS011;11232;51.748;19.390;2024-02-04T01:04:55;6.03;;;3.13;;
22131;SDS011;11232;51.748;19.390;2024-02-04T01:07:21;6.50;;;3.50;;
22131;SDS011;11232;51.748;19.390;2024-02-04T01:09:47;10.93;;;3.40;;
22131;SDS011;11232;51.748;19.390;2024-02-04T01:12:13;5.90;;;3.03;;
22131;SDS011;11232;51.748;19.390;2024-02-04T01:14:39;9.60;;;2.97;;
22131;SDS011;11232;51.748;19.390;2024-02-04T01:17:05;4.70;;;2.13;;
22131;SDS011;11232;51.748;19.390;2024-02-04T01:19:32;4.17;;;2.50;;
22131;SDS011;11232;51.748;19.390;2024-02-04T01:21:58;5.13;;;2.33;;
22131;SDS011;11232;51.748;19.390;2024-02-04T01:24:24;6.20;;;2.20;;
22131;SDS011;11232;51.748;19.390;2024-02-04T01:26:50;7.03;;;2.03;;
22131;SDS011;11232;51.748;19.390;2024-02-04T01:29:16;4.50;;;2.07;;
22131;SDS011;11232;51.748;19.390;2024-02-04T01:31:42;6.03;;;2.07;;
22131;SDS011;11232;51.748;19.390;2024-02-04T01:34:08;4.40;;;1.80;;
22131;SDS011;11232;51.748;19.390;2024-02-04T01:36:34;5.23;;;1.73;;
22131;SDS011;11232;51.748;19.390;2024-02-04T01:39:01;7.73;;;1.97;;
22131;SDS011;11232;51.748;19.390;2024-02-04T01:41:27;4.63;;;1.77;;
22131;SDS011;11232;51.748;19.390;2024-02-04T01:43:53;7.40;;;1.70;;
22131;SDS011;11232;51.748;19.390;2024-02-04T01:46:20;4.27;;;1.97;;
22131;SDS011;11232;51.748;19.390;2024-02-04T01:48:46;5.17;;;1.53;;
22131;SDS011;11232;51.748;19.390;2024-02-04T01:51:13;5.37;;;2.00;;
22131;SDS011;11232;51.748;19.390;2024-02-04T01:53:40;10.33;;;2.10;;
22131;SDS011;11232;51.748;19.390;2024-02-04T01:56:07;3.87;;;1.30;;
22131;SDS011;11232;51.748;19.390;2024-02-04T01:58:34;5.83;;;1.50;;
22131;SDS011;11232;51.748;19.390;2024-02-04T02:01:00;2.60;;;1.60;;
22131;SDS011;11232;51.748;19.390;2024-02-04T02:03:26;4.47;;;1.80;;
22131;SDS011;11232;51.748;19.390;2024-02-04T02:05:52;7.17;;;1.60;;
22131;SDS011;11232;51.748;19.390;2024-02-04T02:08:18;7.07;;;1.70;;
22131;SDS011;11232;51.748;19.390;2024-02-04T02:10:44;8.30;;;1.80;;
22131;SDS011;11232;51.748;19.390;2024-02-04T02:13:16;4.87;;;1.50;;
22131;SDS011;11232;51.748;19.390;2024-02-04T02:15:51;3.63;;;1.37;;
22131;SDS011;11232;51.748;19.390;2024-02-04T02:23:21;5.97;;;1.90;;
22131;SDS011;11232;51.748;19.390;2024-02-04T02:25:47;8.13;;;1.60;;
22131;SDS011;11232;51.748;19.390;2024-02-04T02:28:15;4.00;;;1.73;;
22131;SDS011;11232;51.748;19.390;2024-02-04T02:30:41;6.50;;;1.70;;
22131;SDS011;11232;51.748;19.390;2024-02-04T02:33:07;8.73;;;1.80;;
22131;SDS011;11232;51.748;19.390;2024-02-04T02:35:34;2.13;;;1.57;;
22131;SDS011;11232;51.748;19.390;2024-02-04T02:43:02;7.23;;;2.00;;
22131;SDS011;11232;51.748;19.390;2024-02-04T02:45:28;3.23;;;1.73;;
22131;SDS011;11232;51.748;19.390;2024-02-04T02:47:55;7.43;;;1.97;;
22131;SDS011;11232;51.748;19.390;2024-02-04T02:50:21;6.80;;;2.10;;
22131;SDS011;11232;51.748;19.390;2024-02-04T02:52:47;10.27;;;2.47;;
22131;SDS011;11232;51.748;19.390;2024-02-04T02:55:13;5.47;;;2.20;;
22131;SDS011;11232;51.748;19.390;2024-02-04T02:57:39;4.43;;;2.23;;
22131;SDS011;11232;51.748;19.390;2024-02-04T03:00:05;5.93;;;2.17;;
22131;SDS011;11232;51.748;19.390;2024-02-04T03:02:32;6.17;;;2.00;;
22131;SDS011;11232;51.748;19.390;2024-02-04T03:04:58;5.80;;;1.90;;
22131;SDS011;11232;51.748;19.390;2024-02-04T03:07:25;5.27;;;1.50;;
22131;SDS011;11232;51.748;19.390;2024-02-04T03:09:52;7.53;;;2.00;;
22131;SDS011;11232;51.748;19.390;2024-02-04T03:12:19;6.47;;;1.50;;
22131;SDS011;11232;51.748;19.390;2024-02-04T03:14:45;6.17;;;1.40;;
22131;SDS011;11232;51.748;19.390;2024-02-04T03:17:11;7.23;;;1.37;;
22131;SDS011;11232;51.748;19.390;2024-02-04T03:19:38;5.20;;;1.67;;
22131;SDS011;11232;51.748;19.390;2024-02-04T03:22:04;8.53;;;1.53;;
22131;SDS011;11232;51.748;19.390;2024-02-04T03:24:30;4.57;;;1.53;;
22131;SDS011;11232;51.748;19.390;2024-02-04T03:26:56;8.13;;;1.80;;
22131;SDS011;11232;51.748;19.390;2024-02-04T03:29:22;13.93;;;1.83;;
22131;SDS011;11232;51.748;19.390;2024-02-04T03:31:49;10.20;;;1.50;;
22131;SDS011;11232;51.748;19.390;2024-02-04T03:34:15;5.20;;;1.83;;
22131;SDS011;11232;51.748;19.390;2024-02-04T03:36:41;13.57;;;1.90;;
22131;SDS011;11232;51.748;19.390;2024-02-04T03:39:07;6.83;;;1.77;;
22131;SDS011;11232;51.748;19.390;2024-02-04T03:41:33;5.87;;;1.90;;
22131;SDS011;11232;51.748;19.390;2024-02-04T03:43:59;8.20;;;1.90;;
22131;SDS011;11232;51.748;19.390;2024-02-04T03:46:25;5.10;;;1.40;;
22131;SDS011;11232;51.748;19.390;2024-02-04T03:48:51;8.10;;;1.60;;
22131;SDS011;11232;51.748;19.390;2024-02-04T03:51:17;6.50;;;1.87;;
22131;SDS011;11232;51.748;19.390;2024-02-04T03:53:44;11.33;;;2.10;;
22131;SDS011;11232;51.748;19.390;2024-02-04T03:56:10;7.57;;;1.60;;
22131;SDS011;11232;51.748;19.390;2024-02-04T03:58:36;8.17;;;1.80;;
22131;SDS011;11232;51.748;19.390;2024-02-04T04:01:02;8.73;;;1.87;;
22131;SDS011;11232;51.748;19.390;2024-02-04T04:03:28;5.17;;;1.50;;
22131;SDS011;11232;51.748;19.390;2024-02-04T04:05:54;8.13;;;1.63;;
22131;SDS011;11232;51.748;19.390;2024-02-04T04:08:20;5.80;;;1.47;;
22131;SDS011;11232;51.748;19.390;2024-02-04T04:10:46;6.73;;;1.80;;
22131;SDS011;11232;51.748;19.390;2024-02-04T04:13:12;8.67;;;1.90;;
22131;SDS011;11232;51.748;19.390;2024-02-04T04:15:38;7.03;;;2.17;;
22131;SDS011;11232;51.748;19.390;2024-02-04T04:18:06;11.77;;;1.63;;
22131;SDS011;11232;51.748;19.390;2024-02-04T04:20:32;9.33;;;2.20;;
22131;SDS011;11232;51.748;19.390;2024-02-04T04:22:58;9.20;;;2.50;;
22131;SDS011;11232;51.748;19.390;2024-02-04T04:25:24;7.47;;;2.37;;
22131;SDS011;11232;51.748;19.390;2024-02-04T04:27:49;7.53;;;2.10;;
22131;SDS011;11232;51.748;19.390;2024-02-04T04:30:16;6.83;;;1.70;;
22131;SDS011;11232;51.748;19.390;2024-02-04T04:32:41;9.60;;;2.20;;
22131;SDS011;11232;51.748;19.390;2024-02-04T04:35:07;5.30;;;1.57;;
22131;SDS011;11232;51.748;19.390;2024-02-04T04:37:33;11.50;;;2.03;;
22131;SDS011;11232;51.748;19.390;2024-02-04T04:39:59;6.57;;;2.00;;
22131;SDS011;11232;51.748;19.390;2024-02-04T04:42:25;6.70;;;1.70;;
22131;SDS011;11232;51.748;19.390;2024-02-04T04:44:51;8.33;;;2.20;;
22131;SDS011;11232;51.748;19.390;2024-02-04T04:47:17;15.60;;;2.43;;
22131;SDS011;11232;51.748;19.390;2024-02-04T04:49:43;10.67;;;1.83;;
22131;SDS011;11232;51.748;19.390;2024-02-04T04:52:09;10.77;;;2.30;;
22131;SDS011;11232;51.748;19.390;2024-02-04T04:54:35;5.97;;;1.73;;
22131;SDS011;11232;51.748;19.390;2024-02-04T04:57:01;4.90;;;1.80;;
22131;SDS011;11232;51.748;19.390;2024-02-04T04:59:27;5.80;;;1.67;;
22131;SDS011;11232;51.748;19.390;2024-02-04T05:01:53;5.73;;;1.90;;
22131;SDS011;11232;51.748;19.390;2024-02-04T05:04:19;7.73;;;1.70;;
22131;SDS011;11232;51.748;19.390;2024-02-04T05:06:48;12.60;;;3.07;;
22131;SDS011;11232;51.748;19.390;2024-02-04T05:09:14;6.40;;;1.80;;
22131;SDS011;11232;51.748;19.390;2024-02-04T05:11:41;11.03;;;2.20;;
22131;SDS011;11232;51.748;19.390;2024-02-04T05:14:07;12.73;;;2.40;;
22131;SDS011;11232;51.748;19.390;2024-02-04T05:16:33;9.37;;;2.23;;
22131;SDS011;11232;51.748;19.390;2024-02-04T05:19:00;7.30;;;1.57;;
22131;SDS011;11232;51.748;19.390;2024-02-04T05:21:26;15.00;;;2.03;;
22131;SDS011;11232;51.748;19.390;2024-02-04T05:23:52;14.77;;;2.73;;
22131;SDS011;11232;51.748;19.390;2024-02-04T05:26:18;6.63;;;1.80;;
22131;SDS011;11232;51.748;19.390;2024-02-04T05:28:44;5.70;;;1.87;;
22131;SDS011;11232;51.748;19.390;2024-02-04T05:31:10;12.80;;;1.90;;
22131;SDS011;11232;51.748;19.390;2024-02-04T05:33:36;8.63;;;2.07;;
22131;SDS011;11232;51.748;19.390;2024-02-04T05:36:02;9.00;;;2.03;;
22131;SDS011;11232;51.748;19.390;2024-02-04T05:38:29;10.50;;;2.10;;
22131;SDS011;11232;51.748;19.390;2024-02-04T05:40:55;8.70;;;2.07;;
22131;SDS011;11232;51.748;19.390;2024-02-04T05:43:21;8.23;;;2.10;;
22131;SDS011;11232;51.748;19.390;2024-02-04T05:45:47;7.97;;;2.33;;
22131;SDS011;11232;51.748;19.390;2024-02-04T05:48:13;6.07;;;2.10;;
22131;SDS011;11232;51.748;19.390;2024-02-04T05:50:39;15.93;;;3.20;;
22131;SDS011;11232;51.748;19.390;2024-02-04T05:53:05;9.23;;;2.30;;
22131;SDS011;11232;51.748;19.390;2024-02-04T05:55:31;9.13;;;2.80;;
22131;SDS011;11232;51.748;19.390;2024-02-04T05:57:57;7.47;;;2.27;;
22131;SDS011;11232;51.748;19.390;2024-02-04T06:00:23;11.60;;;2.47;;
22131;SDS011;11232;51.748;19.390;2024-02-04T06:02:49;10.10;;;2.00;;
22131;SDS011;11232;51.748;19.390;2024-02-04T06:05:15;8.20;;;2.30;;
22131;SDS011;11232;51.748;19.390;2024-02-04T06:07:42;9.37;;;2.73;;
22131;SDS011;11232;51.748;19.390;2024-02-04T06:10:09;8.27;;;2.20;;
22131;SDS011;11232;51.748;19.390;2024-02-04T06:12:35;12.70;;;2.33;;
22131;SDS011;11232;51.748;19.390;2024-02-04T06:15:01;7.80;;;2.37;;
22131;SDS011;11232;51.748;19.390;2024-02-04T06:17:27;10.20;;;2.60;;
22131;SDS011;11232;51.748;19.390;2024-02-04T06:19:53;12.37;;;2.10;;
22131;SDS011;11232;51.748;19.390;2024-02-04T06:22:19;14.30;;;2.80;;
22131;SDS011;11232;51.748;19.390;2024-02-04T06:24:45;12.53;;;2.40;;
22131;SDS011;11232;51.748;19.390;2024-02-04T06:27:11;13.23;;;2.67;;
22131;SDS011;11232;51.748;19.390;2024-02-04T06:29:37;10.60;;;2.30;;
22131;SDS011;11232;51.748;19.390;2024-02-04T06:32:04;11.63;;;2.23;;
22131;SDS011;11232;51.748;19.390;2024-02-04T06:34:31;12.67;;;2.47;;
22131;SDS011;11232;51.748;19.390;2024-02-04T06:36:57;7.20;;;2.23;;
22131;SDS011;11232;51.748;19.390;2024-02-04T06:39:23;11.30;;;2.77;;
22131;SDS011;11232;51.748;19.390;2024-02-04T06:41:49;10.83;;;2.73;;
22131;SDS011;11232;51.748;19.390;2024-02-04T06:44:15;9.20;;;2.47;;
22131;SDS011;11232;51.748;19.390;2024-02-04T06:46:41;6.23;;;2.57;;
22131;SDS011;11232;51.748;19.390;2024-02-04T06:49:07;12.67;;;2.70;;
22131;SDS011;11232;51.748;19.390;2024-02-04T06:51:32;11.80;;;3.10;;
22131;SDS011;11232;51.748;19.390;2024-02-04T06:53:59;14.10;;;4.00;;
22131;SDS011;11232;51.748;19.390;2024-02-04T06:56:29;13.30;;;3.13;;
22131;SDS011;11232;51.748;19.390;2024-02-04T06:58:55;12.17;;;2.77;;
22131;SDS011;11232;51.748;19.390;2024-02-04T07:01:21;8.60;;;2.57;;
22131;SDS011;11232;51.748;19.390;2024-02-04T07:03:47;8.93;;;2.00;;
22131;SDS011;11232;51.748;19.390;2024-02-04T07:06:13;10.17;;;1.80;;
22131;SDS011;11232;51.748;19.390;2024-02-04T07:08:39;8.27;;;2.17;;
22131;SDS011;11232;51.748;19.390;2024-02-04T07:11:05;10.00;;;1.83;;
22131;SDS011;11232;51.748;19.390;2024-02-04T07:13:31;10.50;;;2.17;;
22131;SDS011;11232;51.748;19.390;2024-02-04T07:15:57;7.07;;;2.20;;
22131;SDS011;11232;51.748;19.390;2024-02-04T07:18:24;10.00;;;1.90;;
22131;SDS011;11232;51.748;19.390;2024-02-04T07:20:50;7.93;;;1.90;;
22131;SDS011;11232;51.748;19.390;2024-02-04T07:23:16;9.73;;;1.80;;
22131;SDS011;11232;51.748;19.390;2024-02-04T07:25:42;12.77;;;1.90;;
22131;SDS011;11232;51.748;19.390;2024-02-04T07:28:08;5.53;;;1.93;;
22131;SDS011;11232;51.748;19.390;2024-02-04T07:30:34;15.17;;;2.10;;
22131;SDS011;11232;51.748;19.390;2024-02-04T07:33:00;6.43;;;1.67;;
22131;SDS011;11232;51.748;19.390;2024-02-04T07:35:26;8.67;;;1.90;;
22131;SDS011;11232;51.748;19.390;2024-02-04T07:37:52;6.10;;;1.77;;
22131;SDS011;11232;51.748;19.390;2024-02-04T07:40:18;12.47;;;2.20;;
22131;SDS011;11232;51.748;19.390;2024-02-04T07:42:44;4.93;;;1.30;;
22131;SDS011;11232;51.748;19.390;2024-02-04T07:45:10;5.27;;;1.90;;
22131;SDS011;11232;51.748;19.390;2024-02-04T07:47:36;8.80;;;2.27;;
22131;SDS011;11232;51.748;19.390;2024-02-04T07:50:02;7.67;;;2.10;;
22131;SDS011;11232;51.748;19.390;2024-02-04T07:52:28;8.13;;;2.17;;
22131;SDS011;11232;51.748;19.390;2024-02-04T07:54:54;8.80;;;2.50;;
22131;SDS011;11232;51.748;19.390;2024-02-04T07:57:20;13.93;;;2.83;;
22131;SDS011;11232;51.748;19.390;2024-02-04T07:59:46;13.77;;;3.20;;
22131;SDS011;11232;51.748;19.390;2024-02-04T08:02:12;9.30;;;2.80;;
22131;SDS011;11232;51.748;19.390;2024-02-04T08:04:41;11.60;;;2.33;;
22131;SDS011;11232;51.748;19.390;2024-02-04T08:07:07;13.90;;;2.73;;
22131;SDS011;11232;51.748;19.390;2024-02-04T08:09:33;10.73;;;2.10;;
22131;SDS011;11232;51.748;19.390;2024-02-04T08:11:59;15.97;;;2.47;;
22131;SDS011;11232;51.748;19.390;2024-02-04T08:14:25;11.20;;;2.03;;
22131;SDS011;11232;51.748;19.390;2024-02-04T08:16:51;6.97;;;2.10;;
22131;SDS011;11232;51.748;19.390;2024-02-04T08:19:17;10.47;;;2.60;;
22131;SDS011;11232;51.748;19.390;2024-02-04T08:21:43;5.83;;;1.90;;
22131;SDS011;11232;51.748;19.390;2024-02-04T08:24:09;9.23;;;2.37;;
22131;SDS011;11232;51.748;19.390;2024-02-04T08:26:35;6.80;;;2.40;;
22131;SDS011;11232;51.748;19.390;2024-02-04T08:29:01;7.97;;;2.20;;
22131;SDS011;11232;51.748;19.390;2024-02-04T08:31:27;10.20;;;2.43;;
22131;SDS011;11232;51.748;19.390;2024-02-04T08:33:53;7.07;;;1.97;;
22131;SDS011;11232;51.748;19.390;2024-02-04T08:36:19;9.13;;;2.33;;
22131;SDS011;11232;51.748;19.390;2024-02-04T08:38:45;10.57;;;2.57;;
22131;SDS011;11232;51.748;19.390;2024-02-04T08:41:11;9.53;;;2.50;;
22131;SDS011;11232;51.748;19.390;2024-02-04T08:43:37;10.37;;;2.37;;
22131;SDS011;11232;51.748;19.390;2024-02-04T08:46:03;10.07;;;2.97;;
22131;SDS011;11232;51.748;19.390;2024-02-04T08:48:29;8.30;;;2.47;;
22131;SDS011;11232;51.748;19.390;2024-02-04T08:50:55;8.20;;;2.80;;
22131;SDS011;11232;51.748;19.390;2024-02-04T08:53:21;8.83;;;2.43;;
22131;SDS011;11232;51.748;19.390;2024-02-04T08:55:48;12.47;;;2.70;;
22131;SDS011;11232;51.748;19.390;2024-02-04T08:58:14;12.03;;;2.97;;
22131;SDS011;11232;51.748;19.390;2024-02-04T09:00:41;13.87;;;2.97;;
22131;SDS011;11232;51.748;19.390;2024-02-04T09:03:07;15.90;;;3.57;;
22131;SDS011;11232;51.748;19.390;2024-02-04T09:05:33;11.73;;;2.63;;
22131;SDS011;11232;51.748;19.390;2024-02-04T09:07:59;12.20;;;2.57;;
22131;SDS011;11232;51.748;19.390;2024-02-04T09:10:26;10.67;;;2.43;;
22131;SDS011;11232;51.748;19.390;2024-02-04T09:12:52;8.87;;;2.90;;
22131;SDS011;11232;51.748;19.390;2024-02-04T09:15:18;13.40;;;3.40;;
22131;SDS011;11232;51.748;19.390;2024-02-04T09:17:44;14.03;;;2.70;;
22131;SDS011;11232;51.748;19.390;2024-02-04T09:20:10;9.40;;;2.30;;
22131;SDS011;11232;51.748;19.390;2024-02-04T09:22:36;13.60;;;3.17;;
22131;SDS011;11232;51.748;19.390;2024-02-04T09:25:02;10.37;;;2.33;;
22131;SDS011;11232;51.748;19.390;2024-02-04T09:27:29;9.27;;;3.17;;
22131;SDS011;11232;51.748;19.390;2024-02-04T09:29:54;9.07;;;2.57;;
22131;SDS011;11232;51.748;19.390;2024-02-04T09:32:20;8.93;;;2.97;;
22131;SDS011;11232;51.748;19.390;2024-02-04T09:34:46;10.43;;;2.50;;
22131;SDS011;11232;51.748;19.390;2024-02-04T09:37:12;9.00;;;2.40;;
22131;SDS011;11232;51.748;19.390;2024-02-04T09:39:38;8.73;;;2.40;;
22131;SDS011;11232;51.748;19.390;2024-02-04T09:42:04;12.27;;;3.13;;
22131;SDS011;11232;51.748;19.390;2024-02-04T09:44:30;8.83;;;2.80;;
22131;SDS011;11232;51.748;19.390;2024-02-04T09:46:57;9.83;;;3.00;;
22131;SDS011;11232;51.748;19.390;2024-02-04T09:49:26;13.77;;;3.47;;
22131;SDS011;11232;51.748;19.390;2024-02-04T09:51:52;8.97;;;2.57;;
22131;SDS011;11232;51.748;19.390;2024-02-04T09:54:18;10.83;;;3.13;;
22131;SDS011;11232;51.748;19.390;2024-02-04T09:56:46;11.57;;;3.13;;
22131;SDS011;11232;51.748;19.390;2024-02-04T09:59:15;14.07;;;3.50;;
22131;SDS011;11232;51.748;19.390;2024-02-04T10:01:42;10.00;;;2.83;;
22131;SDS011;11232;51.748;19.390;2024-02-04T10:04:09;12.47;;;2.90;;
22131;SDS011;11232;51.748;19.390;2024-02-04T10:06:35;8.13;;;2.93;;
22131;SDS011;11232;51.748;19.390;2024-02-04T10:09:01;13.67;;;3.87;;
22131;SDS011;11232;51.748;19.390;2024-02-04T10:11:27;12.67;;;3.70;;
22131;SDS011;11232;51.748;19.390;2024-02-04T10:13:53;11.37;;;3.30;;
22131;SDS011;11232;51.748;19.390;2024-02-04T10:16:19;12.43;;;3.40;;
22131;SDS011;11232;51.748;19.390;2024-02-04T10:18:46;11.83;;;3.30;;
22131;SDS011;11232;51.748;19.390;2024-02-04T10:21:16;15.80;;;4.03;;
22131;SDS011;11232;51.748;19.390;2024-02-04T10:23:43;11.40;;;3.03;;
22131;SDS011;11232;51.748;19.390;2024-02-04T10:26:09;11.27;;;2.67;;
22131;SDS011;11232;51.748;19.390;2024-02-04T10:28:36;5.53;;;2.33;;
22131;SDS011;11232;51.748;19.390;2024-02-04T10:31:02;9.60;;;2.77;;
22131;SDS011;11232;51.748;19.390;2024-02-04T10:33:32;7.43;;;3.13;;
22131;SDS011;11232;51.748;19.390;2024-02-04T10:36:01;8.20;;;2.63;;
22131;SDS011;11232;51.748;19.390;2024-02-04T10:38:27;10.17;;;3.03;;
22131;SDS011;11232;51.748;19.390;2024-02-04T10:40:53;11.30;;;2.73;;
22131;SDS011;11232;51.748;19.390;2024-02-04T10:43:22;9.23;;;2.63;;
22131;SDS011;11232;51.748;19.390;2024-02-04T10:45:49;12.17;;;2.47;;
22131;SDS011;11232;51.748;19.390;2024-02-04T10:48:19;10.47;;;2.47;;
22131;SDS011;11232;51.748;19.390;2024-02-04T10:50:46;7.57;;;2.40;;
22131;SDS011;11232;51.748;19.390;2024-02-04T10:53:15;8.50;;;2.47;;
22131;SDS011;11232;51.748;19.390;2024-02-04T10:55:43;9.60;;;2.47;;
22131;SDS011;11232;51.748;19.390;2024-02-04T10:58:12;11.73;;;2.90;;
22131;SDS011;11232;51.748;19.390;2024-02-04T11:00:40;8.60;;;2.30;;
22131;SDS011;11232;51.748;19.390;2024-02-04T11:03:06;8.77;;;2.23;;
22131;SDS011;11232;51.748;19.390;2024-02-04T11:05:32;10.43;;;3.10;;
22131;SDS011;11232;51.748;19.390;2024-02-04T11:08:01;6.80;;;2.70;;
22131;SDS011;11232;51.748;19.390;2024-02-04T11:10:28;5.83;;;2.50;;
22131;SDS011;11232;51.748;19.390;2024-02-04T11:12:55;8.93;;;2.53;;
22131;SDS011;11232;51.748;19.390;2024-02-04T11:15:22;5.47;;;2.17;;
22131;SDS011;11232;51.748;19.390;2024-02-04T11:20:52;4.93;;;2.40;;
22131;SDS011;11232;51.748;19.390;2024-02-04T11:25:55;7.57;;;2.70;;
22131;SDS011;11232;51.748;19.390;2024-02-04T11:28:22;7.03;;;2.77;;
22131;SDS011;11232;51.748;19.390;2024-02-04T11:30:48;10.23;;;2.83;;
22131;SDS011;11232;51.748;19.390;2024-02-04T11:33:18;10.03;;;2.50;;
22131;SDS011;11232;51.748;19.390;2024-02-04T11:35:45;5.47;;;2.40;;
22131;SDS011;11232;51.748;19.390;2024-02-04T11:38:11;8.67;;;2.63;;
22131;SDS011;11232;51.748;19.390;2024-02-04T11:40:38;4.27;;;1.90;;
22131;SDS011;11232;51.748;19.390;2024-02-04T11:43:05;12.23;;;2.50;;
22131;SDS011;11232;51.748;19.390;2024-02-04T11:45:31;8.93;;;3.00;;
22131;SDS011;11232;51.748;19.390;2024-02-04T11:48:01;9.60;;;2.93;;
22131;SDS011;11232;51.748;19.390;2024-02-04T11:50:28;9.43;;;2.83;;
22131;SDS011;11232;51.748;19.390;2024-02-04T11:53:02;11.50;;;3.27;;
22131;SDS011;11232;51.748;19.390;2024-02-04T11:55:30;13.23;;;3.00;;
22131;SDS011;11232;51.748;19.390;2024-02-04T11:57:56;8.67;;;3.43;;
22131;SDS011;11232;51.748;19.390;2024-02-04T12:00:23;10.17;;;3.03;;
22131;SDS011;11232;51.748;19.390;2024-02-04T12:02:59;11.03;;;3.50;;
22131;SDS011;11232;51.748;19.390;2024-02-04T12:05:26;13.50;;;2.77;;
22131;SDS011;11232;51.748;19.390;2024-02-04T12:07:52;8.37;;;3.13;;
22131;SDS011;11232;51.748;19.390;2024-02-04T12:10:19;7.90;;;2.90;;
22131;SDS011;11232;51.748;19.390;2024-02-04T12:12:45;11.23;;;2.90;;
22131;SDS011;11232;51.748;19.390;2024-02-04T12:15:11;6.23;;;2.90;;
22131;SDS011;11232;51.748;19.390;2024-02-04T12:17:37;13.83;;;3.30;;
22131;SDS011;11232;51.748;19.390;2024-02-04T12:20:03;14.77;;;2.93;;
22131;SDS011;11232;51.748;19.390;2024-02-04T12:22:30;9.03;;;2.90;;
22131;SDS011;11232;51.748;19.390;2024-02-04T12:24:57;8.50;;;2.90;;
22131;SDS011;11232;51.748;19.390;2024-02-04T12:27:23;8.27;;;2.23;;
22131;SDS011;11232;51.748;19.390;2024-02-04T12:29:52;8.63;;;2.40;;
22131;SDS011;11232;51.748;19.390;2024-02-04T12:32:18;7.70;;;2.40;;
22131;SDS011;11232;51.748;19.390;2024-02-04T12:34:48;7.30;;;2.67;;
22131;SDS011;11232;51.748;19.390;2024-02-04T12:37:19;8.83;;;2.40;;
22131;SDS011;11232;51.748;19.390;2024-02-04T12:39:45;6.03;;;2.00;;
22131;SDS011;11232;51.748;19.390;2024-02-04T12:42:17;6.27;;;2.23;;
22131;SDS011;11232;51.748;19.390;2024-02-04T12:44:45;12.50;;;2.30;;
22131;SDS011;11232;51.748;19.390;2024-02-04T12:47:12;6.83;;;2.20;;
22131;SDS011;11232;51.748;19.390;2024-02-04T12:49:38;7.37;;;2.07;;
22131;SDS011;11232;51.748;19.390;2024-02-04T12:52:05;7.00;;;2.50;;
22131;SDS011;11232;51.748;19.390;2024-02-04T12:54:42;5.50;;;2.30;;
22131;SDS011;11232;51.748;19.390;2024-02-04T12:57:08;7.87;;;2.23;;
22131;SDS011;11232;51.748;19.390;2024-02-04T12:59:36;13.17;;;2.93;;
22131;SDS011;11232;51.748;19.390;2024-02-04T13:02:13;7.20;;;2.73;;
22131;SDS011;11232;51.748;19.390;2024-02-04T13:04:40;9.10;;;2.37;;
22131;SDS011;11232;51.748;19.390;2024-02-04T13:07:11;8.67;;;2.23;;
22131;SDS011;11232;51.748;19.390;2024-02-04T13:09:42;9.00;;;2.43;;
22131;SDS011;11232;51.748;19.390;2024-02-04T13:12:09;4.83;;;2.57;;
22131;SDS011;11232;51.748;19.390;2024-02-04T13:14:36;9.30;;;2.17;;
22131;SDS011;11232;51.748;19.390;2024-02-04T13:17:02;9.03;;;2.67;;
22131;SDS011;11232;51.748;19.390;2024-02-04T13:19:33;10.80;;;2.83;;
22131;SDS011;11232;51.748;19.390;2024-02-04T13:21:59;6.30;;;2.37;;
22131;SDS011;11232;51.748;19.390;2024-02-04T13:24:25;6.17;;;2.83;;
22131;SDS011;11232;51.748;19.390;2024-02-04T13:26:51;10.03;;;2.60;;
22131;SDS011;11232;51.748;19.390;2024-02-04T13:29:17;7.53;;;2.70;;
22131;SDS011;11232;51.748;19.390;2024-02-04T13:31:43;5.30;;;2.53;;
22131;SDS011;11232;51.748;19.390;2024-02-04T13:34:09;6.07;;;2.27;;
22131;SDS011;11232;51.748;19.390;2024-02-04T13:36:35;7.23;;;2.17;;
22131;SDS011;11232;51.748;19.390;2024-02-04T13:39:01;9.63;;;2.97;;
22131;SDS011;11232;51.748;19.390;2024-02-04T13:41:27;7.90;;;2.47;;
22131;SDS011;11232;51.748;19.390;2024-02-04T13:43:53;7.63;;;2.50;;
22131;SDS011;11232;51.748;19.390;2024-02-04T13:46:19;5.40;;;2.03;;
22131;SDS011;11232;51.748;19.390;2024-02-04T13:48:45;7.40;;;2.33;;
22131;SDS011;11232;51.748;19.390;2024-02-04T13:51:11;9.73;;;2.77;;
22131;SDS011;11232;51.748;19.390;2024-02-04T13:53:37;9.97;;;2.70;;
22131;SDS011;11232;51.748;19.390;2024-02-04T13:56:03;5.53;;;2.00;;
22131;SDS011;11232;51.748;19.390;2024-02-04T13:58:29;10.13;;;2.80;;
22131;SDS011;11232;51.748;19.390;2024-02-04T14:00:55;8.57;;;2.57;;
22131;SDS011;11232;51.748;19.390;2024-02-04T14:03:22;7.00;;;2.30;;
22131;SDS011;11232;51.748;19.390;2024-02-04T14:05:48;7.93;;;2.83;;
22131;SDS011;11232;51.748;19.390;2024-02-04T14:08:14;8.20;;;2.50;;
22131;SDS011;11232;51.748;19.390;2024-02-04T14:10:40;9.03;;;2.67;;
22131;SDS011;11232;51.748;19.390;2024-02-04T14:13:06;8.03;;;2.83;;
22131;SDS011;11232;51.748;19.390;2024-02-04T14:15:32;12.47;;;3.13;;
22131;SDS011;11232;51.748;19.390;2024-02-04T14:17:59;7.40;;;2.50;;
22131;SDS011;11232;51.748;19.390;2024-02-04T14:20:25;7.80;;;2.87;;
22131;SDS011;11232;51.748;19.390;2024-02-04T14:22:51;8.57;;;3.50;;
22131;SDS011;11232;51.748;19.390;2024-02-04T14:25:17;9.37;;;2.97;;
22131;SDS011;11232;51.748;19.390;2024-02-04T14:27:44;11.93;;;2.90;;
22131;SDS011;11232;51.748;19.390;2024-02-04T14:30:10;9.07;;;2.37;;
22131;SDS011;11232;51.748;19.390;2024-02-04T14:32:36;11.10;;;3.20;;
22131;SDS011;11232;51.748;19.390;2024-02-04T14:35:02;7.53;;;3.27;;
22131;SDS011;11232;51.748;19.390;2024-02-04T14:37:29;5.83;;;2.13;;
22131;SDS011;11232;51.748;19.390;2024-02-04T14:39:57;6.93;;;3.00;;
22131;SDS011;11232;51.748;19.390;2024-02-04T14:42:25;10.33;;;2.97;;